sensor_id;sensor_type;location;lat;lon;timestamp;P1;durP1;ratioP1;P2;durP2;ratioP2
47455;SDS011;33202;48.512;-2.780;2024-01-27T00:01:42;16.25;;;9.93;;
47455;SDS011;33202;48.512;-2.780;2024-01-27T00:04:08;20.60;;;10.90;;
47455;SDS011;33202;48.512;-2.780;2024-01-27T00:06:34;16.45;;;9.20;;
47455;SDS011;33202;48.512;-2.780;2024-01-27T00:09:00;21.20;;;10.23;;
47455;SDS011;33202;48.512;-2.780;2024-01-27T00:11:26;20.15;;;11.10;;
47455;SDS011;33202;48.512;-2.780;2024-01-27T00:13:52;17.15;;;9.57;;
47455;SDS011;33202;48.512;-2.780;2024-01-27T00:16:18;20.88;;;9.75;;
47455;SDS011;33202;48.512;-2.780;2024-01-27T00:18:45;18.65;;;9.70;;
47455;SDS011;33202;48.512;-2.780;2024-01-27T00:21:11;17.67;;;9.45;;
47455;SDS011;33202;48.512;-2.780;2024-01-27T00:23:37;19.15;;;9.13;;
47455;SDS011;33202;48.512;-2.780;2024-01-27T00:26:03;17.70;;;9.35;;
47455;SDS011;33202;48.512;-2.780;2024-01-27T00:28:29;18.90;;;9.85;;
47455;SDS011;33202;48.512;-2.780;2024-01-27T00:30:55;17.48;;;9.57;;
47455;SDS011;33202;48.512;-2.780;2024-01-27T00:33:21;19.40;;;9.65;;
47455;SDS011;33202;48.512;-2.780;2024-01-27T00:35:47;17.20;;;9.45;;
47455;SDS011;33202;48.512;-2.780;2024-01-27T00:38:13;18.85;;;9.55;;
47455;SDS011;33202;48.512;-2.780;2024-01-27T00:40:40;19.33;;;9.32;;
47455;SDS011;33202;48.512;-2.780;2024-01-27T00:43:06;18.08;;;9.48;;
47455;SDS011;33202;48.512;-2.780;2024-01-27T00:45:32;18.45;;;9.43;;
47455;SDS011;33202;48.512;-2.780;2024-01-27T00:47:58;18.88;;;9.60;;
47455;SDS011;33202;48.512;-2.780;2024-01-27T00:50:24;18.52;;;8.80;;
47455;SDS011;33202;48.512;-2.780;2024-01-27T00:52:50;19.30;;;9.32;;
47455;SDS011;33202;48.512;-2.780;2024-01-27T00:55:16;16.48;;;8.50;;
47455;SDS011;33202;48.512;-2.780;2024-01-27T00:57:42;16.92;;;8.63;;
47455;SDS011;33202;48.512;-2.780;2024-01-27T01:00:08;15.10;;;9.18;;
47455;SDS011;33202;48.512;-2.780;2024-01-27T01:02:35;14.30;;;8.50;;
47455;SDS011;33202;48.512;-2.780;2024-01-27T01:05:02;15.30;;;8.45;;
47455;SDS011;33202;48.512;-2.780;2024-01-27T01:07:30;15.88;;;8.80;;
47455;SDS011;33202;48.512;-2.780;2024-01-27T01:09:57;15.10;;;8.70;;
47455;SDS011;33202;48.512;-2.780;2024-01-27T01:12:23;21.17;;;9.85;;
47455;SDS011;33202;48.512;-2.780;2024-01-27T01:14:50;15.85;;;8.68;;
47455;SDS011;33202;48.512;-2.780;2024-01-27T01:17:16;17.52;;;8.20;;
47455;SDS011;33202;48.512;-2.780;2024-01-27T01:19:42;18.27;;;9.05;;
47455;SDS011;33202;48.512;-2.780;2024-01-27T01:22:08;16.17;;;8.50;;
47455;SDS011;33202;48.512;-2.780;2024-01-27T01:24:34;13.85;;;7.88;;
47455;SDS011;33202;48.512;-2.780;2024-01-27T01:27:00;13.90;;;8.30;;
47455;SDS011;33202;48.512;-2.780;2024-01-27T01:29:26;17.58;;;8.77;;
47455;SDS011;33202;48.512;-2.780;2024-01-27T01:31:52;15.93;;;8.32;;
47455;SDS011;33202;48.512;-2.780;2024-01-27T01:34:18;12.85;;;7.97;;
47455;SDS011;33202;48.512;-2.780;2024-01-27T01:36:44;14.65;;;8.40;;
47455;SDS011;33202;48.512;-2.780;2024-01-27T01:39:11;15.15;;;8.65;;
47455;SDS011;33202;48.512;-2.780;2024-01-27T01:41:40;16.88;;;8.25;;
47455;SDS011;33202;48.512;-2.780;2024-01-27T01:44:07;13.95;;;8.70;;
47455;SDS011;33202;48.512;-2.780;2024-01-27T01:46:33;11.73;;;7.50;;
47455;SDS011;33202;48.512;-2.780;2024-01-27T01:48:59;13.00;;;7.55;;
47455;SDS011;33202;48.512;-2.780;2024-01-27T01:51:26;16.75;;;8.05;;
47455;SDS011;33202;48.512;-2.780;2024-01-27T01:53:53;16.30;;;8.40;;
47455;SDS011;33202;48.512;-2.780;2024-01-27T01:56:20;15.63;;;7.82;;
47455;SDS011;33202;48.512;-2.780;2024-01-27T01:58:47;14.70;;;8.27;;
47455;SDS011;33202;48.512;-2.780;2024-01-27T02:01:12;14.45;;;7.68;;
47455;SDS011;33202;48.512;-2.780;2024-01-27T02:03:38;15.05;;;7.30;;
47455;SDS011;33202;48.512;-2.780;2024-01-27T02:06:05;15.27;;;6.85;;
47455;SDS011;33202;48.512;-2.780;2024-01-27T02:08:31;15.10;;;7.18;;
47455;SDS011;33202;48.512;-2.780;2024-01-27T02:10:58;12.57;;;7.85;;
47455;SDS011;33202;48.512;-2.780;2024-01-27T02:13:26;16.42;;;7.90;;
47455;SDS011;33202;48.512;-2.780;2024-01-27T02:15:52;12.98;;;7.43;;
47455;SDS011;33202;48.512;-2.780;2024-01-27T02:18:18;14.10;;;7.05;;
47455;SDS011;33202;48.512;-2.780;2024-01-27T02:20:45;14.13;;;7.50;;
47455;SDS011;33202;48.512;-2.780;2024-01-27T02:23:11;13.90;;;7.53;;
47455;SDS011;33202;48.512;-2.780;2024-01-27T02:25:37;14.43;;;8.38;;
47455;SDS011;33202;48.512;-2.780;2024-01-27T02:28:04;17.98;;;10.23;;
47455;SDS011;33202;48.512;-2.780;2024-01-27T02:30:30;21.83;;;11.68;;
47455;SDS011;33202;48.512;-2.780;2024-01-27T02:32:56;24.90;;;11.95;;
47455;SDS011;33202;48.512;-2.780;2024-01-27T02:35:25;31.50;;;15.27;;
47455;SDS011;33202;48.512;-2.780;2024-01-27T02:37:51;35.58;;;17.35;;
47455;SDS011;33202;48.512;-2.780;2024-01-27T02:40:17;28.98;;;13.57;;
47455;SDS011;33202;48.512;-2.780;2024-01-27T02:42:43;37.40;;;17.85;;
47455;SDS011;33202;48.512;-2.780;2024-01-27T02:45:09;34.35;;;15.15;;
47455;SDS011;33202;48.512;-2.780;2024-01-27T02:47:36;26.52;;;14.02;;
47455;SDS011;33202;48.512;-2.780;2024-01-27T02:50:02;31.13;;;14.40;;
47455;SDS011;33202;48.512;-2.780;2024-01-27T02:52:29;33.15;;;15.70;;
47455;SDS011;33202;48.512;-2.780;2024-01-27T02:54:55;34.47;;;17.45;;
47455;SDS011;33202;48.512;-2.780;2024-01-27T02:57:21;35.38;;;17.25;;
47455;SDS011;33202;48.512;-2.780;2024-01-27T02:59:47;27.65;;;12.77;;
47455;SDS011;33202;48.512;-2.780;2024-01-27T03:02:13;22.52;;;11.57;;
47455;SDS011;33202;48.512;-2.780;2024-01-27T03:04:39;22.80;;;11.60;;
47455;SDS011;33202;48.512;-2.780;2024-01-27T03:07:05;20.52;;;11.43;;
47455;SDS011;33202;48.512;-2.780;2024-01-27T03:09:31;26.52;;;13.02;;
47455;SDS011;33202;48.512;-2.780;2024-01-27T03:11:57;20.17;;;10.93;;
47455;SDS011;33202;48.512;-2.780;2024-01-27T03:14:24;32.85;;;15.15;;
47455;SDS011;33202;48.512;-2.780;2024-01-27T03:16:50;35.65;;;17.20;;
47455;SDS011;33202;48.512;-2.780;2024-01-27T03:19:16;39.17;;;17.23;;
47455;SDS011;33202;48.512;-2.780;2024-01-27T03:21:42;34.75;;;15.73;;
47455;SDS011;33202;48.512;-2.780;2024-01-27T03:24:08;44.10;;;17.35;;
47455;SDS011;33202;48.512;-2.780;2024-01-27T03:26:34;36.95;;;17.52;;
47455;SDS011;33202;48.512;-2.780;2024-01-27T03:29:00;33.85;;;14.30;;
47455;SDS011;33202;48.512;-2.780;2024-01-27T03:31:32;29.00;;;13.48;;
47455;SDS011;33202;48.512;-2.780;2024-01-27T03:34:01;25.85;;;11.38;;
47455;SDS011;33202;48.512;-2.780;2024-01-27T03:36:28;23.58;;;11.43;;
47455;SDS011;33202;48.512;-2.780;2024-01-27T03:38:55;18.63;;;9.65;;
47455;SDS011;33202;48.512;-2.780;2024-01-27T03:41:21;17.25;;;8.60;;
47455;SDS011;33202;48.512;-2.780;2024-01-27T03:43:47;17.00;;;8.55;;
47455;SDS011;33202;48.512;-2.780;2024-01-27T03:46:14;16.50;;;8.27;;
47455;SDS011;33202;48.512;-2.780;2024-01-27T03:48:40;13.15;;;7.13;;
47455;SDS011;33202;48.512;-2.780;2024-01-27T03:51:06;13.95;;;7.28;;
47455;SDS011;33202;48.512;-2.780;2024-01-27T03:53:32;20.02;;;7.10;;
47455;SDS011;33202;48.512;-2.780;2024-01-27T03:55:58;14.90;;;6.57;;
47455;SDS011;33202;48.512;-2.780;2024-01-27T03:58:27;11.52;;;6.50;;
47455;SDS011;33202;48.512;-2.780;2024-01-27T04:00:53;10.98;;;6.13;;
47455;SDS011;33202;48.512;-2.780;2024-01-27T04:03:19;15.88;;;5.53;;
47455;SDS011;33202;48.512;-2.780;2024-01-27T04:05:45;14.70;;;5.72;;
47455;SDS011;33202;48.512;-2.780;2024-01-27T04:08:11;12.35;;;5.43;;
47455;SDS011;33202;48.512;-2.780;2024-01-27T04:10:37;12.20;;;5.75;;
47455;SDS011;33202;48.512;-2.780;2024-01-27T04:13:03;10.35;;;5.45;;
47455;SDS011;33202;48.512;-2.780;2024-01-27T04:15:29;13.63;;;6.25;;
47455;SDS011;33202;48.512;-2.780;2024-01-27T04:17:55;12.00;;;6.43;;
47455;SDS011;33202;48.512;-2.780;2024-01-27T04:20:22;25.02;;;13.40;;
47455;SDS011;33202;48.512;-2.780;2024-01-27T04:22:47;25.45;;;12.20;;
47455;SDS011;33202;48.512;-2.780;2024-01-27T04:25:13;15.13;;;8.98;;
47455;SDS011;33202;48.512;-2.780;2024-01-27T04:27:41;18.85;;;8.63;;
47455;SDS011;33202;48.512;-2.780;2024-01-27T04:30:10;12.82;;;7.43;;
47455;SDS011;33202;48.512;-2.780;2024-01-27T04:32:37;11.30;;;6.22;;
47455;SDS011;33202;48.512;-2.780;2024-01-27T04:35:04;8.57;;;5.78;;
47455;SDS011;33202;48.512;-2.780;2024-01-27T04:37:30;17.48;;;9.23;;
47455;SDS011;33202;48.512;-2.780;2024-01-27T04:39:56;22.20;;;10.15;;
47455;SDS011;33202;48.512;-2.780;2024-01-27T04:42:22;19.60;;;10.02;;
47455;SDS011;33202;48.512;-2.780;2024-01-27T04:44:48;19.25;;;9.10;;
47455;SDS011;33202;48.512;-2.780;2024-01-27T04:47:14;15.50;;;7.25;;
47455;SDS011;33202;48.512;-2.780;2024-01-27T04:49:40;14.48;;;6.25;;
47455;SDS011;33202;48.512;-2.780;2024-01-27T04:52:06;11.23;;;7.03;;
47455;SDS011;33202;48.512;-2.780;2024-01-27T04:54:32;13.57;;;7.28;;
47455;SDS011;33202;48.512;-2.780;2024-01-27T04:56:58;13.80;;;7.57;;
47455;SDS011;33202;48.512;-2.780;2024-01-27T04:59:24;13.77;;;7.65;;
47455;SDS011;33202;48.512;-2.780;2024-01-27T05:01:50;14.02;;;7.63;;
47455;SDS011;33202;48.512;-2.780;2024-01-27T05:04:16;13.00;;;7.47;;
47455;SDS011;33202;48.512;-2.780;2024-01-27T05:06:45;14.27;;;7.25;;
47455;SDS011;33202;48.512;-2.780;2024-01-27T05:09:11;12.38;;;6.95;;
47455;SDS011;33202;48.512;-2.780;2024-01-27T05:11:37;11.77;;;6.80;;
47455;SDS011;33202;48.512;-2.780;2024-01-27T05:14:03;11.30;;;6.55;;
47455;SDS011;33202;48.512;-2.780;2024-01-27T05:16:29;14.60;;;6.75;;
47455;SDS011;33202;48.512;-2.780;2024-01-27T05:18:56;13.00;;;6.63;;
47455;SDS011;33202;48.512;-2.780;2024-01-27T05:21:23;17.15;;;8.40;;
47455;SDS011;33202;48.512;-2.780;2024-01-27T05:23:49;15.20;;;8.52;;
47455;SDS011;33202;48.512;-2.780;2024-01-27T05:26:14;13.70;;;7.13;;
47455;SDS011;33202;48.512;-2.780;2024-01-27T05:28:41;13.50;;;7.38;;
47455;SDS011;33202;48.512;-2.780;2024-01-27T05:31:07;14.18;;;7.07;;
47455;SDS011;33202;48.512;-2.780;2024-01-27T05:33:33;15.27;;;6.50;;
47455;SDS011;33202;48.512;-2.780;2024-01-27T05:35:59;10.80;;;6.20;;
47455;SDS011;33202;48.512;-2.780;2024-01-27T05:38:25;15.50;;;6.90;;
47455;SDS011;33202;48.512;-2.780;2024-01-27T05:43:19;12.50;;;5.72;;
47455;SDS011;33202;48.512;-2.780;2024-01-27T05:45:45;11.98;;;6.03;;
47455;SDS011;33202;48.512;-2.780;2024-01-27T05:48:11;14.45;;;5.65;;
47455;SDS011;33202;48.512;-2.780;2024-01-27T05:50:40;12.18;;;5.53;;
47455;SDS011;33202;48.512;-2.780;2024-01-27T05:53:06;9.25;;;5.13;;
47455;SDS011;33202;48.512;-2.780;2024-01-27T05:55:32;10.40;;;4.80;;
47455;SDS011;33202;48.512;-2.780;2024-01-27T05:57:59;9.82;;;4.95;;
47455;SDS011;33202;48.512;-2.780;2024-01-27T06:00:25;10.20;;;4.72;;
47455;SDS011;33202;48.512;-2.780;2024-01-27T06:02:51;11.63;;;5.30;;
47455;SDS011;33202;48.512;-2.780;2024-01-27T06:05:16;10.30;;;4.55;;
47455;SDS011;33202;48.512;-2.780;2024-01-27T06:07:43;9.07;;;4.57;;
47455;SDS011;33202;48.512;-2.780;2024-01-27T06:10:10;10.15;;;4.45;;
47455;SDS011;33202;48.512;-2.780;2024-01-27T06:12:37;9.60;;;4.30;;
47455;SDS011;33202;48.512;-2.780;2024-01-27T06:17:31;8.10;;;4.53;;
47455;SDS011;33202;48.512;-2.780;2024-01-27T06:19:57;10.18;;;4.50;;
47455;SDS011;33202;48.512;-2.780;2024-01-27T06:22:23;8.85;;;4.45;;
47455;SDS011;33202;48.512;-2.780;2024-01-27T06:24:49;8.68;;;4.03;;
47455;SDS011;33202;48.512;-2.780;2024-01-27T06:27:15;9.50;;;3.97;;
47455;SDS011;33202;48.512;-2.780;2024-01-27T06:29:41;7.18;;;4.05;;
47455;SDS011;33202;48.512;-2.780;2024-01-27T06:32:09;6.90;;;4.25;;
47455;SDS011;33202;48.512;-2.780;2024-01-27T06:34:35;10.98;;;4.32;;
47455;SDS011;33202;48.512;-2.780;2024-01-27T06:37:01;7.72;;;3.90;;
47455;SDS011;33202;48.512;-2.780;2024-01-27T06:39:27;8.80;;;3.38;;
47455;SDS011;33202;48.512;-2.780;2024-01-27T06:41:54;8.15;;;3.90;;
47455;SDS011;33202;48.512;-2.780;2024-01-27T06:44:20;9.10;;;3.83;;
47455;SDS011;33202;48.512;-2.780;2024-01-27T06:46:46;8.55;;;3.45;;
47455;SDS011;33202;48.512;-2.780;2024-01-27T06:49:15;12.32;;;5.15;;
47455;SDS011;33202;48.512;-2.780;2024-01-27T06:51:41;13.95;;;5.07;;
47455;SDS011;33202;48.512;-2.780;2024-01-27T06:54:07;10.63;;;4.95;;
47455;SDS011;33202;48.512;-2.780;2024-01-27T06:56:33;10.10;;;4.47;;
47455;SDS011;33202;48.512;-2.780;2024-01-27T06:58:59;9.35;;;5.18;;
47455;SDS011;33202;48.512;-2.780;2024-01-27T07:01:25;9.60;;;4.90;;
47455;SDS011;33202;48.512;-2.780;2024-01-27T07:03:51;8.52;;;4.78;;
47455;SDS011;33202;48.512;-2.780;2024-01-27T07:06:17;10.90;;;4.60;;
47455;SDS011;33202;48.512;-2.780;2024-01-27T07:08:43;10.88;;;5.72;;
47455;SDS011;33202;48.512;-2.780;2024-01-27T07:11:09;12.90;;;6.00;;
47455;SDS011;33202;48.512;-2.780;2024-01-27T07:13:35;9.85;;;5.22;;
47455;SDS011;33202;48.512;-2.780;2024-01-27T07:16:01;17.98;;;9.13;;
47455;SDS011;33202;48.512;-2.780;2024-01-27T07:18:27;15.48;;;8.90;;
47455;SDS011;33202;48.512;-2.780;2024-01-27T07:20:54;11.13;;;5.40;;
47455;SDS011;33202;48.512;-2.780;2024-01-27T07:23:20;11.02;;;5.22;;
47455;SDS011;33202;48.512;-2.780;2024-01-27T07:25:46;8.57;;;5.15;;
47455;SDS011;33202;48.512;-2.780;2024-01-27T07:28:12;10.80;;;5.25;;
47455;SDS011;33202;48.512;-2.780;2024-01-27T07:30:40;11.88;;;5.05;;
47455;SDS011;33202;48.512;-2.780;2024-01-27T07:33:06;7.28;;;4.43;;
47455;SDS011;33202;48.512;-2.780;2024-01-27T07:35:32;15.88;;;5.70;;
47455;SDS011;33202;48.512;-2.780;2024-01-27T07:37:59;10.13;;;4.63;;
47455;SDS011;33202;48.512;-2.780;2024-01-27T07:40:25;12.82;;;5.18;;
47455;SDS011;33202;48.512;-2.780;2024-01-27T07:42:51;11.88;;;5.18;;
47455;SDS011;33202;48.512;-2.780;2024-01-27T07:45:17;10.75;;;4.70;;
47455;SDS011;33202;48.512;-2.780;2024-01-27T07:47:43;10.20;;;4.90;;
47455;SDS011;33202;48.512;-2.780;2024-01-27T07:50:09;12.02;;;5.30;;
47455;SDS011;33202;48.512;-2.780;2024-01-27T07:52:35;12.13;;;5.55;;
47455;SDS011;33202;48.512;-2.780;2024-01-27T07:55:01;10.48;;;4.63;;
47455;SDS011;33202;48.512;-2.780;2024-01-27T07:57:28;9.20;;;5.05;;
47455;SDS011;33202;48.512;-2.780;2024-01-27T07:59:54;13.45;;;5.38;;
47455;SDS011;33202;48.512;-2.780;2024-01-27T08:02:20;10.48;;;5.07;;
47455;SDS011;33202;48.512;-2.780;2024-01-27T08:04:46;10.50;;;5.65;;
47455;SDS011;33202;48.512;-2.780;2024-01-27T08:07:12;10.40;;;5.60;;
47455;SDS011;33202;48.512;-2.780;2024-01-27T08:09:39;9.15;;;5.20;;
47455;SDS011;33202;48.512;-2.780;2024-01-27T08:12:06;9.88;;;5.57;;
47455;SDS011;33202;48.512;-2.780;2024-01-27T08:14:32;10.75;;;5.97;;
47455;SDS011;33202;48.512;-2.780;2024-01-27T08:16:58;12.38;;;6.78;;
47455;SDS011;33202;48.512;-2.780;2024-01-27T08:19:25;9.13;;;5.13;;
47455;SDS011;33202;48.512;-2.780;2024-01-27T08:21:51;11.73;;;5.45;;
47455;SDS011;33202;48.512;-2.780;2024-01-27T08:24:17;11.82;;;5.72;;
47455;SDS011;33202;48.512;-2.780;2024-01-27T08:26:43;14.15;;;5.82;;
47455;SDS011;33202;48.512;-2.780;2024-01-27T08:29:09;13.43;;;5.95;;
47455;SDS011;33202;48.512;-2.780;2024-01-27T08:31:35;12.98;;;6.15;;
47455;SDS011;33202;48.512;-2.780;2024-01-27T08:34:04;9.65;;;5.80;;
47455;SDS011;33202;48.512;-2.780;2024-01-27T08:36:30;11.68;;;6.38;;
47455;SDS011;33202;48.512;-2.780;2024-01-27T08:38:58;14.32;;;6.18;;
47455;SDS011;33202;48.512;-2.780;2024-01-27T08:41:24;14.18;;;6.10;;
47455;SDS011;33202;48.512;-2.780;2024-01-27T08:43:51;12.38;;;5.68;;
47455;SDS011;33202;48.512;-2.780;2024-01-27T08:46:17;11.38;;;5.90;;
47455;SDS011;33202;48.512;-2.780;2024-01-27T08:51:10;20.08;;;9.82;;
47455;SDS011;33202;48.512;-2.780;2024-01-27T08:53:37;25.38;;;11.07;;
47455;SDS011;33202;48.512;-2.780;2024-01-27T08:56:04;27.38;;;12.20;;
47455;SDS011;33202;48.512;-2.780;2024-01-27T08:58:30;25.60;;;11.93;;
47455;SDS011;33202;48.512;-2.780;2024-01-27T09:00:56;35.63;;;15.50;;
47455;SDS011;33202;48.512;-2.780;2024-01-27T09:03:23;35.45;;;17.00;;
47455;SDS011;33202;48.512;-2.780;2024-01-27T09:05:48;63.72;;;25.40;;
47455;SDS011;33202;48.512;-2.780;2024-01-27T09:08:15;140.25;;;51.10;;
47455;SDS011;33202;48.512;-2.780;2024-01-27T09:10:42;166.25;;;58.15;;
47455;SDS011;33202;48.512;-2.780;2024-01-27T09:13:08;140.63;;;52.85;;
47455;SDS011;33202;48.512;-2.780;2024-01-27T09:15:33;103.68;;;40.42;;
47455;SDS011;33202;48.512;-2.780;2024-01-27T09:17:59;79.63;;;33.53;;
47455;SDS011;33202;48.512;-2.780;2024-01-27T09:20:25;63.83;;;26.23;;
47455;SDS011;33202;48.512;-2.780;2024-01-27T09:22:51;55.10;;;21.45;;
47455;SDS011;33202;48.512;-2.780;2024-01-27T09:25:17;42.92;;;18.33;;
47455;SDS011;33202;48.512;-2.780;2024-01-27T09:27:43;34.13;;;15.77;;
47455;SDS011;33202;48.512;-2.780;2024-01-27T09:30:10;28.98;;;13.43;;
47455;SDS011;33202;48.512;-2.780;2024-01-27T09:32:36;26.55;;;12.27;;
47455;SDS011;33202;48.512;-2.780;2024-01-27T09:35:02;25.55;;;11.52;;
47455;SDS011;33202;48.512;-2.780;2024-01-27T09:37:28;22.95;;;9.90;;
47455;SDS011;33202;48.512;-2.780;2024-01-27T09:39:54;19.80;;;8.40;;
47455;SDS011;33202;48.512;-2.780;2024-01-27T09:42:20;14.32;;;7.32;;
47455;SDS011;33202;48.512;-2.780;2024-01-27T09:44:48;16.13;;;7.85;;
47455;SDS011;33202;48.512;-2.780;2024-01-27T09:47:14;16.30;;;6.50;;
47455;SDS011;33202;48.512;-2.780;2024-01-27T09:49:40;11.83;;;5.47;;
47455;SDS011;33202;48.512;-2.780;2024-01-27T09:52:08;14.60;;;5.47;;
47455;SDS011;33202;48.512;-2.780;2024-01-27T09:54:34;9.30;;;4.43;;
47455;SDS011;33202;48.512;-2.780;2024-01-27T09:57:01;13.20;;;4.30;;
47455;SDS011;33202;48.512;-2.780;2024-01-27T09:59:27;8.95;;;3.65;;
47455;SDS011;33202;48.512;-2.780;2024-01-27T10:01:53;10.18;;;4.28;;
47455;SDS011;33202;48.512;-2.780;2024-01-27T10:04:20;10.80;;;4.50;;
47455;SDS011;33202;48.512;-2.780;2024-01-27T10:06:48;11.90;;;4.47;;
47455;SDS011;33202;48.512;-2.780;2024-01-27T10:11:42;12.52;;;4.38;;
47455;SDS011;33202;48.512;-2.780;2024-01-27T10:14:11;8.35;;;3.63;;
47455;SDS011;33202;48.512;-2.780;2024-01-27T10:16:43;9.07;;;3.80;;
47455;SDS011;33202;48.512;-2.780;2024-01-27T10:19:16;11.40;;;3.55;;
47455;SDS011;33202;48.512;-2.780;2024-01-27T10:21:42;26.02;;;4.60;;
47455;SDS011;33202;48.512;-2.780;2024-01-27T10:24:09;14.32;;;4.22;;
47455;SDS011;33202;48.512;-2.780;2024-01-27T10:26:35;7.80;;;3.05;;
47455;SDS011;33202;48.512;-2.780;2024-01-27T10:29:01;6.55;;;2.80;;
47455;SDS011;33202;48.512;-2.780;2024-01-27T10:31:27;10.52;;;3.00;;
47455;SDS011;33202;48.512;-2.780;2024-01-27T10:33:54;11.77;;;3.38;;
47455;SDS011;33202;48.512;-2.780;2024-01-27T10:36:21;8.90;;;2.45;;
47455;SDS011;33202;48.512;-2.780;2024-01-27T10:38:47;5.82;;;2.45;;
47455;SDS011;33202;48.512;-2.780;2024-01-27T10:41:14;8.90;;;2.70;;
47455;SDS011;33202;48.512;-2.780;2024-01-27T10:43:43;12.45;;;3.22;;
47455;SDS011;33202;48.512;-2.780;2024-01-27T10:46:09;7.07;;;2.42;;
47455;SDS011;33202;48.512;-2.780;2024-01-27T10:48:36;8.02;;;2.38;;
47455;SDS011;33202;48.512;-2.780;2024-01-27T10:51:11;6.35;;;2.15;;
47455;SDS011;33202;48.512;-2.780;2024-01-27T10:53:38;12.68;;;2.72;;
47455;SDS011;33202;48.512;-2.780;2024-01-27T10:56:05;11.40;;;3.63;;
47455;SDS011;33202;48.512;-2.780;2024-01-27T10:58:34;14.27;;;3.90;;
47455;SDS011;33202;48.512;-2.780;2024-01-27T11:01:07;8.63;;;2.55;;
47455;SDS011;33202;48.512;-2.780;2024-01-27T11:03:36;8.80;;;2.40;;
47455;SDS011;33202;48.512;-2.780;2024-01-27T11:06:04;6.95;;;2.45;;
47455;SDS011;33202;48.512;-2.780;2024-01-27T11:08:31;7.70;;;2.00;;
47455;SDS011;33202;48.512;-2.780;2024-01-27T11:10:57;9.80;;;2.30;;
47455;SDS011;33202;48.512;-2.780;2024-01-27T11:13:24;10.02;;;2.53;;
47455;SDS011;33202;48.512;-2.780;2024-01-27T11:15:53;6.35;;;2.28;;
47455;SDS011;33202;48.512;-2.780;2024-01-27T11:18:19;10.63;;;2.67;;
47455;SDS011;33202;48.512;-2.780;2024-01-27T11:20:45;10.55;;;2.83;;
47455;SDS011;33202;48.512;-2.780;2024-01-27T11:23:14;7.70;;;2.42;;
47455;SDS011;33202;48.512;-2.780;2024-01-27T11:25:41;12.88;;;3.58;;
47455;SDS011;33202;48.512;-2.780;2024-01-27T11:28:10;11.73;;;3.35;;
47455;SDS011;33202;48.512;-2.780;2024-01-27T11:30:38;7.45;;;2.63;;
47455;SDS011;33202;48.512;-2.780;2024-01-27T11:33:05;9.93;;;2.78;;
47455;SDS011;33202;48.512;-2.780;2024-01-27T11:35:31;10.20;;;2.75;;
47455;SDS011;33202;48.512;-2.780;2024-01-27T11:37:57;7.97;;;2.00;;
47455;SDS011;33202;48.512;-2.780;2024-01-27T11:40:23;8.95;;;3.00;;
47455;SDS011;33202;48.512;-2.780;2024-01-27T11:43:00;10.98;;;2.65;;
47455;SDS011;33202;48.512;-2.780;2024-01-27T11:45:27;11.55;;;3.20;;
47455;SDS011;33202;48.512;-2.780;2024-01-27T11:47:54;8.73;;;2.63;;
47455;SDS011;33202;48.512;-2.780;2024-01-27T11:50:20;8.43;;;2.30;;
47455;SDS011;33202;48.512;-2.780;2024-01-27T11:52:47;10.15;;;2.22;;
47455;SDS011;33202;48.512;-2.780;2024-01-27T11:55:13;8.63;;;2.60;;
47455;SDS011;33202;48.512;-2.780;2024-01-27T11:57:44;12.45;;;2.53;;
47455;SDS011;33202;48.512;-2.780;2024-01-27T12:00:10;6.88;;;2.22;;
47455;SDS011;33202;48.512;-2.780;2024-01-27T12:02:38;14.77;;;2.80;;
47455;SDS011;33202;48.512;-2.780;2024-01-27T12:05:05;8.15;;;2.42;;
47455;SDS011;33202;48.512;-2.780;2024-01-27T12:07:31;10.30;;;2.58;;
47455;SDS011;33202;48.512;-2.780;2024-01-27T12:09:58;10.52;;;2.22;;
47455;SDS011;33202;48.512;-2.780;2024-01-27T12:12:24;10.23;;;2.17;;
47455;SDS011;33202;48.512;-2.780;2024-01-27T12:14:51;8.32;;;2.42;;
47455;SDS011;33202;48.512;-2.780;2024-01-27T12:17:17;8.20;;;2.43;;
47455;SDS011;33202;48.512;-2.780;2024-01-27T12:19:47;8.03;;;3.07;;
47455;SDS011;33202;48.512;-2.780;2024-01-27T12:22:26;12.85;;;2.63;;
47455;SDS011;33202;48.512;-2.780;2024-01-27T12:24:53;11.77;;;2.22;;
47455;SDS011;33202;48.512;-2.780;2024-01-27T12:27:21;7.57;;;2.17;;
47455;SDS011;33202;48.512;-2.780;2024-01-27T12:29:47;8.00;;;2.50;;
47455;SDS011;33202;48.512;-2.780;2024-01-27T12:32:14;11.57;;;3.92;;
47455;SDS011;33202;48.512;-2.780;2024-01-27T12:34:41;9.40;;;2.25;;
47455;SDS011;33202;48.512;-2.780;2024-01-27T12:37:08;7.35;;;2.20;;
47455;SDS011;33202;48.512;-2.780;2024-01-27T12:39:34;11.00;;;2.60;;
47455;SDS011;33202;48.512;-2.780;2024-01-27T12:42:00;9.50;;;2.15;;
47455;SDS011;33202;48.512;-2.780;2024-01-27T12:44:26;9.65;;;2.20;;
47455;SDS011;33202;48.512;-2.780;2024-01-27T12:46:52;9.93;;;2.67;;
47455;SDS011;33202;48.512;-2.780;2024-01-27T12:49:18;6.13;;;2.13;;
47455;SDS011;33202;48.512;-2.780;2024-01-27T12:51:44;10.07;;;2.33;;
47455;SDS011;33202;48.512;-2.780;2024-01-27T12:54:11;7.20;;;2.00;;
47455;SDS011;33202;48.512;-2.780;2024-01-27T12:56:37;7.80;;;1.77;;
47455;SDS011;33202;48.512;-2.780;2024-01-27T12:59:03;7.38;;;2.20;;
47455;SDS011;33202;48.512;-2.780;2024-01-27T13:01:31;7.75;;;1.98;;
47455;SDS011;33202;48.512;-2.780;2024-01-27T13:03:57;10.20;;;2.65;;
47455;SDS011;33202;48.512;-2.780;2024-01-27T13:06:23;7.32;;;2.00;;
47455;SDS011;33202;48.512;-2.780;2024-01-27T13:08:49;10.18;;;2.00;;
47455;SDS011;33202;48.512;-2.780;2024-01-27T13:11:16;8.45;;;2.30;;
47455;SDS011;33202;48.512;-2.780;2024-01-27T13:13:42;8.43;;;2.10;;
47455;SDS011;33202;48.512;-2.780;2024-01-27T13:16:08;7.60;;;2.08;;
47455;SDS011;33202;48.512;-2.780;2024-01-27T13:18:35;7.82;;;2.42;;
47455;SDS011;33202;48.512;-2.780;2024-01-27T13:21:02;7.10;;;2.22;;
47455;SDS011;33202;48.512;-2.780;2024-01-27T13:23:29;8.35;;;2.03;;
47455;SDS011;33202;48.512;-2.780;2024-01-27T13:25:55;11.18;;;1.95;;
47455;SDS011;33202;48.512;-2.780;2024-01-27T13:28:21;10.68;;;2.30;;
47455;SDS011;33202;48.512;-2.780;2024-01-27T13:30:47;7.15;;;1.92;;
47455;SDS011;33202;48.512;-2.780;2024-01-27T13:33:14;6.32;;;2.25;;
47455;SDS011;33202;48.512;-2.780;2024-01-27T13:35:41;6.97;;;2.22;;
47455;SDS011;33202;48.512;-2.780;2024-01-27T13:38:11;6.97;;;2.17;;
47455;SDS011;33202;48.512;-2.780;2024-01-27T13:40:37;7.45;;;1.88;;
47455;SDS011;33202;48.512;-2.780;2024-01-27T13:43:03;6.63;;;2.42;;
47455;SDS011;33202;48.512;-2.780;2024-01-27T13:45:30;10.83;;;2.27;;
47455;SDS011;33202;48.512;-2.780;2024-01-27T13:47:56;5.13;;;1.80;;
47455;SDS011;33202;48.512;-2.780;2024-01-27T13:50:22;7.68;;;2.75;;
47455;SDS011;33202;48.512;-2.780;2024-01-27T13:52:50;5.53;;;2.30;;
47455;SDS011;33202;48.512;-2.780;2024-01-27T13:55:16;12.07;;;2.55;;
47455;SDS011;33202;48.512;-2.780;2024-01-27T13:57:43;8.80;;;2.22;;
47455;SDS011;33202;48.512;-2.780;2024-01-27T14:00:09;3.90;;;1.63;;
47455;SDS011;33202;48.512;-2.780;2024-01-27T14:02:36;5.35;;;2.13;;
47455;SDS011;33202;48.512;-2.780;2024-01-27T14:05:02;9.88;;;2.20;;
47455;SDS011;33202;48.512;-2.780;2024-01-27T14:07:28;6.10;;;2.28;;
47455;SDS011;33202;48.512;-2.780;2024-01-27T14:09:54;7.30;;;2.28;;
47455;SDS011;33202;48.512;-2.780;2024-01-27T14:12:21;7.30;;;1.83;;
47455;SDS011;33202;48.512;-2.780;2024-01-27T14:14:48;4.82;;;1.80;;
47455;SDS011;33202;48.512;-2.780;2024-01-27T14:17:14;10.75;;;3.03;;
47455;SDS011;33202;48.512;-2.780;2024-01-27T14:19:40;13.98;;;2.58;;
47455;SDS011;33202;48.512;-2.780;2024-01-27T14:22:06;7.55;;;2.22;;
47455;SDS011;33202;48.512;-2.780;2024-01-27T14:24:32;5.95;;;2.13;;
47455;SDS011;33202;48.512;-2.780;2024-01-27T14:26:58;7.53;;;2.42;;
47455;SDS011;33202;48.512;-2.780;2024-01-27T14:29:24;7.57;;;2.25;;